createdAt,value
2019-04-01T00:00:38.600Z,6.00
2019-04-01T00:03:10.186Z,5.90
2019-04-01T00:05:40.819Z,5.90
2019-04-01T00:08:11.362Z,5.90
2019-04-01T00:10:42.180Z,5.90
2019-04-01T00:13:12.878Z,5.80
2019-04-01T00:15:43.600Z,5.70
2019-04-01T00:18:13.958Z,5.80
2019-04-01T00:20:44.592Z,5.80
2019-04-01T00:23:16.949Z,5.80
2019-04-01T00:25:47.848Z,5.70
2019-04-01T00:28:18.314Z,5.70
2019-04-01T00:30:49.329Z,5.60
2019-04-01T00:33:19.868Z,5.60
2019-04-01T00:35:50.367Z,5.50
2019-04-01T00:38:23.469Z,5.50
2019-04-01T00:40:54.262Z,5.40
2019-04-01T00:43:45.757Z,5.40
2019-04-01T00:46:17.395Z,5.40
2019-04-01T00:48:48.061Z,5.40
2019-04-01T00:51:19.154Z,5.40
2019-04-01T00:53:49.584Z,5.30
2019-04-01T00:56:20.209Z,5.40
2019-04-01T00:58:50.850Z,5.40
2019-04-01T01:01:21.735Z,5.30
2019-04-01T01:03:52.741Z,5.20
2019-04-01T01:06:23.371Z,5.10
2019-04-01T01:08:54.269Z,5.20
2019-04-01T01:11:24.603Z,5.10
2019-04-01T01:13:55.165Z,5.10
2019-04-01T01:16:26.240Z,5.00
2019-04-01T01:18:56.660Z,5.00
2019-04-01T01:21:27.260Z,4.90
2019-04-01T01:23:57.959Z,4.80
2019-04-01T01:26:28.459Z,4.80
2019-04-01T01:28:59.013Z,4.80
2019-04-01T01:31:30.022Z,4.90
2019-04-01T01:34:01.249Z,4.80
2019-04-01T01:36:33.296Z,4.80
2019-04-01T01:39:05.916Z,4.80
2019-04-01T01:41:36.758Z,4.80
2019-04-01T01:44:07.184Z,4.70
2019-04-01T01:46:37.964Z,4.60
2019-04-01T01:49:08.668Z,4.60
2019-04-01T01:51:39.149Z,4.50
2019-04-01T01:54:11.936Z,4.50
2019-04-01T01:56:42.413Z,4.50
2019-04-01T01:59:13.039Z,4.40
2019-04-01T02:01:55.198Z,4.50
2019-04-01T02:04:25.798Z,4.50
2019-04-01T02:06:56.701Z,4.40
2019-04-01T02:09:30.470Z,4.30
2019-04-01T02:12:01.075Z,4.40
2019-04-01T02:14:31.500Z,4.30
2019-04-01T02:17:02.363Z,4.30
2019-04-01T02:19:32.817Z,4.30
2019-04-01T02:22:03.482Z,4.30
2019-04-01T02:24:35.549Z,4.20
2019-04-01T02:27:06.673Z,4.20
2019-04-01T02:29:37.348Z,4.10
2019-04-01T02:32:08.025Z,4.10
2019-04-01T02:34:38.859Z,4.10
2019-04-01T02:37:09.286Z,4.00
2019-04-01T02:39:41.797Z,4.10
2019-04-01T02:42:12.855Z,4.10
2019-04-01T02:44:43.348Z,4.10
2019-04-01T02:47:15.198Z,4.00
2019-04-01T02:49:45.630Z,4.10
2019-04-01T02:52:16.445Z,4.00
2019-04-01T02:54:47.106Z,4.00
2019-04-01T02:57:17.687Z,4.00
2019-04-01T02:59:48.141Z,3.90
2019-04-01T03:02:21.294Z,3.90
2019-04-01T03:04:51.432Z,3.90
2019-04-01T03:07:21.890Z,3.90
2019-04-01T03:09:52.667Z,3.80
2019-04-01T03:12:23.138Z,3.80
2019-04-01T03:14:54.967Z,3.80
2019-04-01T03:17:25.490Z,3.70
2019-04-01T03:19:56.784Z,3.70
2019-04-01T03:22:27.789Z,3.60
2019-04-01T03:24:58.487Z,3.60
2019-04-01T03:27:28.972Z,3.60
2019-04-01T03:29:59.746Z,3.60
2019-04-01T03:32:30.415Z,3.50
2019-04-01T03:35:01.588Z,3.60
2019-04-01T03:37:32.746Z,3.60
2019-04-01T03:40:05.419Z,3.50
2019-04-01T03:42:36.039Z,3.50
2019-04-01T03:45:09.924Z,3.50
2019-04-01T03:47:43.247Z,3.50
2019-04-01T03:50:13.891Z,3.40
2019-04-01T03:52:44.824Z,3.50
2019-04-01T03:55:15.351Z,3.50
2019-04-01T03:57:46.121Z,3.50
2019-04-01T04:00:16.551Z,3.40
2019-04-01T04:02:46.998Z,3.50
2019-04-01T04:05:17.776Z,3.40
2019-04-01T04:07:48.379Z,3.40
2019-04-01T04:10:18.785Z,3.40
2019-04-01T04:12:49.592Z,3.40
2019-04-01T04:15:20.158Z,3.40
2019-04-01T04:17:51.378Z,3.40
2019-04-01T04:20:23.322Z,3.40
2019-04-01T04:22:55.018Z,3.40
2019-04-01T04:25:26.439Z,3.30
2019-04-01T04:27:56.711Z,3.20
2019-04-01T04:30:26.975Z,3.20
2019-04-01T04:32:57.492Z,3.20
2019-04-01T04:35:27.898Z,3.20
2019-04-01T04:37:58.498Z,3.10
2019-04-01T04:40:30.215Z,3.10
2019-04-01T04:43:00.480Z,3.10
2019-04-01T04:45:33.487Z,3.10
2019-04-01T04:48:04.304Z,3.00
2019-04-01T04:50:34.697Z,3.00
2019-04-01T04:53:06.090Z,3.00
2019-04-01T04:55:36.589Z,3.00
2019-04-01T04:58:08.278Z,2.90
2019-04-01T05:00:39.235Z,2.90
2019-04-01T05:03:09.764Z,2.90
2019-04-01T05:05:40.382Z,2.90
2019-04-01T05:08:11.112Z,2.90
2019-04-01T05:10:42.278Z,2.90
2019-04-01T05:13:13.173Z,2.80
2019-04-01T05:15:44.171Z,2.80
2019-04-01T05:18:16.834Z,2.80
2019-04-01T05:20:49.112Z,2.80
2019-04-01T05:23:20.779Z,2.80
2019-04-01T05:25:53.580Z,2.80
2019-04-01T05:28:26.122Z,2.80
2019-04-01T05:30:58.984Z,2.80
2019-04-01T05:33:31.585Z,2.80
2019-04-01T05:36:03.967Z,2.80
2019-04-01T05:38:34.886Z,2.70
2019-04-01T05:41:06.827Z,2.70
2019-04-01T05:43:38.038Z,2.70
2019-04-01T05:46:09.468Z,2.70
2019-04-01T05:48:40.564Z,2.70
2019-04-01T05:51:11.433Z,2.70
2019-04-01T05:53:42.463Z,2.80
2019-04-01T05:56:13.688Z,2.80
2019-04-01T05:58:44.823Z,2.80
2019-04-01T06:01:21.035Z,2.90
2019-04-01T06:03:51.751Z,2.90
2019-04-01T06:06:22.647Z,3.00
2019-04-01T06:08:53.767Z,3.00
2019-04-01T06:11:26.303Z,3.10
2019-04-01T06:13:58.079Z,3.20
2019-04-01T06:16:29.083Z,3.30
2019-04-01T06:19:00.072Z,3.40
2019-04-01T06:21:31.427Z,3.50
2019-04-01T06:24:02.624Z,3.70
2019-04-01T06:26:33.857Z,3.80
2019-04-01T06:29:04.906Z,3.90
2019-04-01T06:31:37.700Z,4.10
2019-04-01T06:34:08.525Z,4.30
2019-04-01T06:36:39.421Z,4.50
2019-04-01T06:39:10.146Z,4.70
2019-04-01T06:41:41.208Z,4.80
2019-04-01T06:44:12.200Z,5.10
2019-04-01T06:46:43.270Z,5.20
2019-04-01T06:49:14.828Z,5.40
2019-04-01T06:51:45.679Z,5.50
2019-04-01T06:54:16.748Z,5.60
2019-04-01T06:56:48.034Z,5.70
2019-04-01T06:59:19.313Z,5.80
2019-04-01T07:01:51.445Z,6.00
2019-04-01T07:04:22.969Z,5.90
2019-04-01T07:06:54.577Z,6.10
2019-04-01T07:09:25.503Z,6.20
2019-04-01T07:11:58.189Z,6.40
2019-04-01T07:14:30.299Z,6.40
2019-04-01T07:17:02.391Z,6.40
2019-04-01T07:19:35.799Z,6.60
2019-04-01T07:22:08.593Z,6.60
2019-04-01T07:24:39.352Z,6.70
2019-04-01T07:27:10.312Z,6.80
2019-04-01T07:29:41.995Z,6.90
2019-04-01T07:32:14.919Z,7.00
2019-04-01T07:34:47.231Z,7.20
2019-04-01T07:37:18.529Z,7.00
2019-04-01T07:39:49.634Z,7.20
2019-04-01T07:42:20.485Z,7.20
2019-04-01T07:44:53.015Z,7.30
2019-04-01T07:47:24.131Z,7.40
2019-04-01T07:49:55.782Z,7.60
2019-04-01T07:52:27.002Z,7.70
2019-04-01T07:54:57.590Z,7.80
2019-04-01T07:57:32.665Z,7.90
2019-04-01T08:00:02.265Z,8.00
2019-04-01T08:02:34.702Z,7.90
2019-04-01T08:05:05.946Z,7.80
2019-04-01T08:07:37.324Z,7.90
2019-04-01T08:10:08.774Z,7.90
2019-04-01T08:12:39.959Z,7.80
2019-04-01T08:15:12.459Z,8.00
2019-04-01T08:17:45.253Z,8.10
2019-04-01T08:20:15.978Z,8.20
2019-04-01T08:22:46.983Z,8.40
2019-04-01T08:25:18.615Z,8.40
2019-04-01T08:27:51.075Z,8.60
2019-04-01T08:30:23.960Z,8.40
2019-04-01T08:32:55.029Z,8.60
2019-04-01T08:35:25.663Z,8.60
2019-04-01T08:38:10.012Z,8.60
2019-04-01T08:40:41.147Z,8.70
2019-04-01T08:43:12.271Z,8.90
2019-04-01T08:45:46.155Z,8.90
2019-04-01T08:48:17.027Z,9.00
2019-04-01T08:50:47.630Z,8.90
2019-04-01T08:53:18.727Z,9.00
2019-04-01T08:55:49.684Z,8.90
2019-04-01T08:58:22.912Z,9.00
2019-04-01T09:00:56.822Z,9.10
2019-04-01T09:03:28.756Z,9.20
2019-04-01T09:05:59.553Z,9.00
2019-04-01T09:08:31.888Z,9.10
2019-04-01T09:11:02.702Z,9.20
2019-04-01T09:13:33.976Z,9.30
2019-04-01T09:16:05.413Z,9.20
2019-04-01T09:18:36.497Z,9.10
2019-04-01T09:21:07.260Z,9.10
2019-04-01T09:23:38.163Z,9.10
2019-04-01T09:26:08.590Z,9.30
2019-04-01T09:28:39.480Z,9.40
2019-04-01T09:31:11.850Z,9.40
2019-04-01T09:33:42.477Z,9.50
2019-04-01T09:36:13.918Z,9.60
2019-04-01T09:38:44.793Z,9.70
2019-04-01T09:41:15.421Z,9.70
2019-04-01T09:43:46.058Z,9.80
2019-04-01T09:46:16.795Z,9.90
2019-04-01T09:48:50.139Z,10.10
2019-04-01T09:51:21.082Z,10.00
2019-04-01T09:53:51.833Z,10.10
2019-04-01T09:56:22.337Z,10.30
2019-04-01T09:58:53.088Z,10.40
2019-04-01T10:01:24.178Z,10.30
2019-04-01T10:03:54.828Z,10.40
2019-04-01T10:06:25.742Z,10.40
2019-04-01T10:08:57.029Z,10.30
2019-04-01T10:11:27.606Z,10.40
2019-04-01T10:14:00.360Z,10.60
2019-04-01T10:16:31.322Z,10.60
2019-04-01T10:19:02.012Z,10.80
2019-04-01T10:21:32.834Z,10.30
2019-04-01T10:24:03.776Z,10.80
2019-04-01T10:26:34.736Z,10.80
2019-04-01T10:29:05.632Z,10.90
2019-04-01T10:31:36.396Z,10.90
2019-04-01T10:34:07.936Z,11.00
2019-04-01T10:36:38.972Z,10.90
2019-04-01T10:39:09.919Z,10.90
2019-04-01T10:41:40.757Z,10.60
2019-04-01T10:44:11.738Z,11.10
2019-04-01T10:46:42.509Z,11.20
2019-04-01T10:49:13.354Z,11.20
2019-04-01T10:51:44.609Z,11.30
2019-04-01T10:54:15.580Z,11.30
2019-04-01T10:56:46.055Z,11.30
2019-04-01T10:59:16.646Z,11.50
2019-04-01T11:01:47.323Z,11.60
2019-04-01T11:04:18.828Z,11.50
2019-04-01T11:06:49.859Z,11.70
2019-04-01T11:09:20.549Z,11.70
2019-04-01T11:11:51.521Z,11.70
2019-04-01T11:14:22.900Z,11.60
2019-04-01T11:16:56.561Z,11.40
2019-04-01T11:19:27.123Z,11.30
2019-04-01T11:21:57.713Z,11.40
2019-04-01T11:24:31.243Z,11.50
2019-04-01T11:27:02.224Z,11.40
2019-04-01T11:29:33.000Z,11.40
2019-04-01T11:32:03.773Z,11.60
2019-04-01T11:34:34.256Z,11.70
2019-04-01T11:37:06.694Z,11.80
2019-04-01T11:39:37.357Z,11.80
2019-04-01T11:42:08.313Z,11.80
2019-04-01T11:44:38.770Z,11.60
2019-04-01T11:47:09.705Z,11.60
2019-04-01T11:49:40.361Z,11.90
2019-04-01T11:52:15.300Z,11.90
2019-04-01T11:54:44.058Z,11.80
2019-04-01T11:57:14.598Z,11.90
2019-04-01T11:59:45.060Z,11.80
2019-04-01T12:02:16.550Z,11.90
2019-04-01T12:04:47.315Z,11.80
2019-04-01T12:07:17.991Z,12.00
2019-04-01T12:09:52.117Z,12.00
2019-04-01T12:12:24.381Z,12.10
2019-04-01T12:14:54.971Z,12.00
2019-04-01T12:17:26.072Z,12.00
2019-04-01T12:19:56.720Z,12.00
2019-04-01T12:22:27.463Z,12.00
2019-04-01T12:24:58.767Z,12.10
2019-04-01T12:27:29.507Z,12.00
2019-04-01T12:30:00.368Z,12.20
2019-04-01T12:32:31.241Z,12.20
2019-04-01T12:35:01.931Z,12.20
2019-04-01T12:37:32.574Z,12.20
2019-04-01T12:40:03.316Z,12.10
2019-04-01T12:42:34.800Z,12.20
2019-04-01T12:45:08.288Z,12.20
2019-04-01T12:47:42.975Z,12.20
2019-04-01T12:50:12.272Z,12.20
2019-04-01T12:52:43.703Z,12.10
2019-04-01T12:55:14.686Z,12.20
2019-04-01T12:57:48.388Z,12.40
2019-04-01T13:00:19.138Z,12.50
2019-04-01T13:02:51.466Z,12.40
2019-04-01T13:05:28.780Z,12.40
2019-04-01T13:07:58.956Z,12.40
2019-04-01T13:10:30.730Z,12.50
2019-04-01T13:13:01.480Z,12.40
2019-04-01T13:15:32.475Z,12.50
2019-04-01T13:18:03.827Z,12.70
2019-04-01T13:20:38.051Z,12.80
2019-04-01T13:23:08.846Z,12.90
2019-04-01T13:25:40.026Z,13.00
2019-04-01T13:28:13.687Z,12.80
2019-04-01T13:30:44.885Z,12.70
2019-04-01T13:33:17.183Z,12.70
2019-04-01T13:35:48.821Z,12.70
2019-04-01T13:38:19.985Z,12.70
2019-04-01T13:40:51.339Z,12.70
2019-04-01T13:43:22.240Z,12.80
2019-04-01T13:45:53.157Z,12.90
2019-04-01T13:48:24.038Z,13.10
2019-04-01T13:50:56.515Z,13.20
2019-04-01T13:53:28.564Z,13.00
2019-04-01T13:55:59.493Z,13.00
2019-04-01T13:58:30.648Z,12.80
2019-04-01T14:01:01.557Z,13.00
2019-04-01T14:03:32.506Z,13.00
2019-04-01T14:06:04.054Z,13.00
2019-04-01T14:08:35.024Z,13.10
2019-04-01T14:11:06.321Z,13.20
2019-04-01T14:13:40.478Z,13.20
2019-04-01T14:16:11.671Z,13.30
2019-04-01T14:18:45.498Z,13.40
2019-04-01T14:21:20.666Z,13.20
2019-04-01T14:23:49.728Z,13.30
2019-04-01T14:26:20.664Z,13.20
2019-04-01T14:28:51.301Z,13.00
2019-04-01T14:31:22.379Z,13.10
2019-04-01T14:33:53.806Z,13.20
2019-04-01T14:36:24.885Z,13.20
2019-04-01T14:38:57.896Z,13.10
2019-04-01T14:41:29.085Z,13.10
2019-04-01T14:44:00.020Z,13.10
2019-04-01T14:46:30.818Z,12.70
2019-04-01T14:49:02.854Z,12.80
2019-04-01T14:51:34.626Z,12.60
2019-04-01T14:54:06.102Z,12.80
2019-04-01T14:56:37.465Z,12.90
2019-04-01T14:59:08.268Z,12.80
2019-04-01T15:01:39.573Z,12.80
2019-04-01T15:04:11.671Z,12.80
2019-04-01T15:06:42.341Z,12.80
2019-04-01T15:09:17.297Z,13.00
2019-04-01T15:11:48.255Z,12.90
2019-04-01T15:14:18.809Z,12.90
2019-04-01T15:16:49.857Z,13.00
2019-04-01T15:19:20.722Z,12.80
2019-04-01T15:21:52.035Z,12.80
2019-04-01T15:24:23.553Z,12.70
2019-04-01T15:26:54.371Z,12.60
2019-04-01T15:29:29.252Z,12.80
2019-04-01T15:32:00.775Z,13.00
2019-04-01T15:34:31.485Z,12.90
2019-04-01T15:37:02.468Z,12.80
2019-04-01T15:39:35.147Z,12.90
2019-04-01T15:42:07.473Z,12.90
2019-04-01T15:44:43.247Z,12.80
2019-04-01T15:47:14.878Z,12.70
2019-04-01T15:49:45.848Z,12.60
2019-04-01T15:52:16.874Z,12.60
2019-04-01T15:54:48.672Z,12.70
2019-04-01T15:57:19.664Z,12.80
2019-04-01T15:59:50.370Z,12.80
2019-04-01T16:02:25.010Z,12.50
2019-04-01T16:04:55.931Z,12.60
2019-04-01T16:07:28.962Z,12.70
2019-04-01T16:10:01.095Z,12.70
2019-04-01T16:12:32.244Z,12.80
2019-04-01T16:15:05.869Z,12.60
2019-04-01T16:17:38.810Z,12.60
2019-04-01T16:20:12.620Z,12.60
2019-04-01T16:22:43.874Z,12.70
2019-04-01T16:25:15.604Z,12.60
2019-04-01T16:27:46.583Z,12.60
2019-04-01T16:30:17.951Z,12.60
2019-04-01T16:32:49.889Z,12.50
2019-04-01T16:35:21.451Z,12.50
2019-04-01T16:37:52.815Z,12.40
2019-04-01T16:40:24.956Z,12.30
2019-04-01T16:42:56.550Z,12.30
2019-04-01T16:45:27.869Z,12.30
2019-04-01T16:47:59.016Z,12.30
2019-04-01T16:50:29.676Z,12.10
2019-04-01T16:53:00.063Z,12.00
2019-04-01T16:55:33.073Z,11.90
2019-04-01T16:58:04.480Z,11.90
2019-04-01T17:00:35.467Z,11.80
2019-04-01T17:03:06.087Z,11.70
2019-04-01T17:05:38.321Z,11.80
2019-04-01T17:08:17.089Z,11.80
2019-04-01T17:10:47.652Z,11.70
2019-04-01T17:13:18.275Z,11.70
2019-04-01T17:15:51.791Z,11.60
2019-04-01T17:18:23.253Z,11.60
2019-04-01T17:20:54.242Z,11.50
2019-04-01T17:23:28.295Z,11.50
2019-04-01T17:25:59.112Z,11.40
2019-04-01T17:28:29.625Z,11.30
2019-04-01T17:31:00.259Z,11.20
2019-04-01T17:33:30.860Z,11.20
2019-04-01T17:36:01.359Z,11.20
2019-04-01T17:38:32.294Z,11.10
2019-04-01T17:41:02.876Z,11.10
2019-04-01T17:43:33.643Z,11.00
2019-04-01T17:46:04.422Z,11.00
2019-04-01T17:48:34.956Z,10.90
2019-04-01T17:51:05.755Z,10.90
2019-04-01T17:53:36.308Z,10.80
2019-04-01T17:56:07.987Z,10.80
2019-04-01T17:58:38.814Z,10.70
2019-04-01T18:01:10.414Z,10.60
2019-04-01T18:03:42.957Z,10.60
2019-04-01T18:06:15.655Z,10.50
2019-04-01T18:08:45.940Z,10.50
2019-04-01T18:11:16.342Z,10.40
2019-04-01T18:13:46.624Z,10.40
2019-04-01T18:16:16.939Z,10.30
2019-04-01T18:18:47.171Z,10.30
2019-04-01T18:21:17.491Z,10.30
2019-04-01T18:23:47.883Z,10.30
2019-04-01T18:26:18.378Z,10.30
2019-04-01T18:28:51.487Z,10.20
2019-04-01T18:31:25.333Z,10.20
2019-04-01T18:33:56.706Z,10.10
2019-04-01T18:36:27.236Z,10.10
2019-04-01T18:38:58.640Z,10.10
2019-04-01T18:41:31.303Z,10.10
2019-04-01T18:44:02.065Z,10.10
2019-04-01T18:46:32.623Z,10.00
2019-04-01T18:49:02.988Z,9.90
2019-04-01T18:51:36.441Z,10.00
2019-04-01T18:54:05.691Z,10.00
2019-04-01T18:56:36.890Z,9.90
2019-04-01T18:59:09.233Z,9.90
2019-04-01T19:01:40.026Z,9.90
2019-04-01T19:04:13.415Z,9.90
2019-04-01T19:06:44.086Z,9.90
2019-04-01T19:09:16.230Z,9.90
2019-04-01T19:12:03.028Z,9.90
2019-04-01T19:14:22.148Z,9.90
2019-04-01T19:16:52.662Z,9.80
2019-04-01T19:19:23.290Z,9.80
2019-04-01T19:21:54.016Z,9.80
2019-04-01T19:24:26.196Z,9.80
2019-04-01T19:26:57.084Z,9.70
2019-04-01T19:29:27.631Z,9.70
2019-04-01T19:31:58.567Z,9.70
2019-04-01T19:34:29.624Z,9.60
2019-04-01T19:37:02.803Z,9.60
2019-04-01T19:39:33.438Z,9.50
2019-04-01T19:42:06.301Z,9.50
2019-04-01T19:44:38.371Z,9.40
2019-04-01T19:47:08.796Z,9.30
2019-04-01T19:49:40.743Z,9.20
2019-04-01T19:52:11.190Z,9.10
2019-04-01T19:54:41.807Z,9.00
2019-04-01T19:57:12.686Z,9.00
2019-04-01T19:59:43.713Z,8.90
2019-04-01T20:02:14.234Z,8.80
2019-04-01T20:04:44.657Z,8.80
2019-04-01T20:07:15.283Z,8.80
2019-04-01T20:09:47.632Z,8.80
2019-04-01T20:12:21.025Z,8.70
2019-04-01T20:14:53.742Z,8.80
2019-04-01T20:17:24.170Z,8.60
2019-04-01T20:19:57.535Z,8.50
2019-04-01T20:22:28.079Z,8.50
2019-04-01T20:25:03.342Z,8.50
2019-04-01T20:27:34.953Z,8.50
2019-04-01T20:30:09.105Z,8.50
2019-04-01T20:32:42.790Z,8.50
2019-04-01T20:35:23.269Z,8.30
2019-04-01T20:37:46.150Z,8.40
2019-04-01T20:40:18.460Z,8.30
2019-04-01T20:42:49.014Z,8.30
2019-04-01T20:45:20.879Z,8.30
2019-04-01T20:47:51.556Z,8.30
2019-04-01T20:50:23.778Z,8.20
2019-04-01T20:52:55.400Z,8.20
2019-04-01T20:55:27.954Z,8.20
2019-04-01T20:57:58.667Z,8.10
2019-04-01T21:00:29.143Z,8.10
2019-04-01T21:03:01.104Z,8.10
2019-04-01T21:05:36.947Z,8.00
2019-04-01T21:08:09.825Z,8.00
2019-04-01T21:10:42.710Z,8.00
2019-04-01T21:13:13.425Z,8.00
2019-04-01T21:15:44.067Z,8.00
2019-04-01T21:18:14.871Z,7.90
2019-04-01T21:20:48.166Z,7.90
2019-04-01T21:23:19.006Z,8.00
2019-04-01T21:25:49.505Z,7.90
2019-04-01T21:28:22.645Z,7.90
2019-04-01T21:30:51.977Z,7.90
2019-04-01T21:33:22.462Z,7.90
2019-04-01T21:35:53.671Z,7.90
2019-04-01T21:38:24.329Z,7.80
2019-04-01T21:40:56.452Z,7.90
2019-04-01T21:43:27.174Z,7.80
2019-04-01T21:45:58.976Z,7.80
2019-04-01T21:48:29.576Z,7.80
2019-04-01T21:51:00.258Z,7.80
2019-04-01T21:53:31.195Z,7.70
2019-04-01T21:56:02.518Z,7.80
2019-04-01T21:58:33.473Z,7.80
2019-04-01T22:01:04.144Z,7.80
2019-04-01T22:03:35.355Z,7.80
2019-04-01T22:06:07.064Z,7.70
2019-04-01T22:08:37.580Z,7.80
2019-04-01T22:11:09.122Z,7.70
2019-04-01T22:13:39.994Z,7.60
2019-04-01T22:16:10.484Z,7.60
2019-04-01T22:18:42.859Z,7.60
2019-04-01T22:21:13.433Z,7.60
2019-04-01T22:23:43.992Z,7.60
2019-04-01T22:26:15.592Z,7.50
2019-04-01T22:28:46.028Z,7.50
2019-04-01T22:31:16.487Z,7.50
2019-04-01T22:33:46.927Z,7.50
2019-04-01T22:36:30.471Z,7.50
2019-04-01T22:38:52.360Z,7.40
2019-04-01T22:41:22.837Z,7.50
2019-04-01T22:43:54.290Z,7.40
2019-04-01T22:46:25.327Z,7.40
2019-04-01T22:48:55.995Z,7.40
2019-04-01T22:51:26.469Z,7.30
2019-04-01T22:53:57.201Z,7.30
2019-04-01T22:56:28.653Z,7.30
2019-04-01T22:58:59.115Z,7.30
2019-04-01T23:01:29.635Z,7.30
2019-04-01T23:04:03.297Z,7.20
2019-04-01T23:06:37.241Z,7.20
2019-04-01T23:09:08.660Z,7.20
2019-04-01T23:11:39.150Z,7.20
2019-04-01T23:14:09.543Z,7.20
2019-04-01T23:16:41.685Z,7.20
2019-04-01T23:19:12.184Z,7.20
2019-04-01T23:21:43.072Z,7.20
2019-04-01T23:24:13.702Z,7.20
2019-04-01T23:26:44.388Z,7.30
2019-04-01T23:29:14.904Z,7.30
2019-04-01T23:31:46.242Z,7.30
2019-04-01T23:34:17.842Z,7.20
2019-04-01T23:36:48.514Z,7.10
2019-04-01T23:39:19.526Z,7.10
2019-04-01T23:41:50.152Z,6.90
2019-04-01T23:44:20.636Z,6.90
2019-04-01T23:46:51.096Z,6.90
2019-04-01T23:49:21.650Z,6.90
2019-04-01T23:51:52.160Z,6.90
2019-04-01T23:54:22.550Z,6.80
2019-04-01T23:56:53.297Z,6.80
2019-04-01T23:59:23.809Z,6.80
